Time;durP1;ratioP1;P1;durP2;ratioP2;P2;SDS_P1;SDS_P2;PMS_P1;PMS_P2;Temp;Humidity;BMP_temperature;BMP_pressure;BME280_temperature;BME280_humidity;BME280_pressure;Samples;Min_cycle;Max_cycle;Signal;HPM_P1;HPM_P2
2021/12/17 00:00:58;;;;;;;22.05;14.13;;;8.50;99.90;;;;;;5113867;28;20203;-63
2021/12/17 00:03:36;;;;;;;24.95;16.27;;;8.50;99.90;;;;;;5113773;28;20234;-62
2021/12/17 00:08:52;;;;;;;31.58;17.58;;;8.50;99.90;;;;;;5103153;28;20202;-62
2021/12/17 00:11:20;;;;;;;27.10;16.83;;;8.40;99.90;;;;;;5113323;28;20207;-62
2021/12/17 00:13:48;;;;;;;28.90;17.50;;;8.40;99.90;;;;;;5113534;28;20587;-62
2021/12/17 00:16:21;;;;;;;30.10;19.52;;;8.40;99.90;;;;;;5113409;28;20576;-62
2021/12/17 00:19:03;;;;;;;35.92;19.50;;;8.40;99.90;;;;;;5113406;28;20223;-63
2021/12/17 00:44:18;;;;;;;36.90;21.73;;;8.30;99.90;;;;;;5117505;28;20261;-63
2021/12/17 00:49:38;;;;;;;42.58;22.23;;;8.30;99.90;;;;;;5117208;28;20202;-62
2021/12/17 00:52:05;;;;;;;44.15;23.45;;;8.30;99.90;;;;;;5117473;28;20611;-62
2021/12/17 00:54:36;;;;;;;39.28;22.48;;;8.30;99.90;;;;;;5116968;28;20688;-63
2021/12/17 00:57:08;;;;;;;52.92;24.80;;;8.30;99.90;;;;;;5117282;28;20195;-61
2021/12/17 00:59:36;;;;;;;41.47;22.33;;;8.30;99.90;;;;;;5117629;28;20628;-63
2021/12/17 01:02:07;;;;;;;36.33;21.55;;;8.30;99.90;;;;;;5117303;28;20199;-63
2021/12/17 01:04:36;;;;;;;43.17;22.33;;;8.40;99.90;;;;;;5116877;28;20215;-63
2021/12/17 01:07:05;;;;;;;39.92;21.65;;;8.40;99.90;;;;;;5117389;28;20210;-63
2021/12/17 01:09:32;;;;;;;38.55;20.92;;;8.40;99.90;;;;;;5117384;28;20195;-62
2021/12/17 01:12:00;;;;;;;40.42;22.45;;;8.40;99.90;;;;;;5117716;28;20210;-62
2021/12/17 01:14:29;;;;;;;37.38;22.58;;;8.40;99.90;;;;;;5117749;28;20226;-62
2021/12/17 01:16:56;;;;;;;35.95;22.27;;;8.40;99.90;;;;;;5116909;28;20204;-63
2021/12/17 01:19:41;;;;;;;36.22;20.95;;;8.40;99.90;;;;;;5117391;28;20553;-61
2021/12/17 01:22:40;;;;;;;38.85;22.52;;;8.40;99.90;;;;;;5117280;28;20199;-63
2021/12/17 01:25:07;;;;;;;32.35;19.00;;;8.50;99.90;;;;;;5116800;28;20206;-62
2021/12/17 01:35:53;;;;;;;32.25;19.63;;;8.50;99.90;;;;;;5115925;28;20222;-63
2021/12/17 01:44:17;;;;;;;32.65;19.33;;;8.50;99.90;;;;;;5018458;28;20708;-63
2021/12/17 01:46:46;;;;;;;29.02;18.48;;;8.50;99.90;;;;;;5093123;28;20268;-62
2021/12/17 01:49:28;;;;;;;31.52;18.05;;;8.50;99.90;;;;;;5116215;28;20724;-63
2021/12/17 02:00:22;;;;;;;29.88;19.33;;;8.50;99.90;;;;;;5116515;28;20180;-63
2021/12/17 02:02:52;;;;;;;27.30;17.60;;;8.50;99.90;;;;;;5116085;28;20220;-62
2021/12/17 02:05:20;;;;;;;28.80;17.20;;;8.50;99.90;;;;;;5116225;28;20191;-62
2021/12/17 02:07:51;;;;;;;28.40;18.70;;;8.60;99.90;;;;;;5115784;28;20590;-62
2021/12/17 02:10:54;;;;;;;26.33;17.15;;;8.60;99.90;;;;;;5115695;28;20635;-62
2021/12/17 02:21:54;;;;;;;27.48;17.42;;;8.50;99.90;;;;;;5115430;28;20183;-62
2021/12/17 02:30:10;;;;;;;27.55;15.48;;;8.50;99.90;;;;;;5092989;28;20278;-62
2021/12/17 02:32:39;;;;;;;27.48;17.08;;;8.50;99.90;;;;;;5121477;28;20224;-62
2021/12/17 02:35:34;;;;;;;23.75;15.50;;;8.50;99.90;;;;;;5122870;28;20234;-62
2021/12/17 02:38:03;;;;;;;24.38;15.48;;;8.50;99.90;;;;;;5118725;28;20271;-63
2021/12/17 02:45:59;;;;;;;25.08;15.55;;;8.50;99.90;;;;;;5115728;28;20637;-62
2021/12/17 02:48:26;;;;;;;24.25;16.05;;;8.50;99.90;;;;;;5113851;28;20200;-62
2021/12/17 02:50:55;;;;;;;22.80;13.98;;;8.50;99.90;;;;;;5114864;28;20672;-62
2021/12/17 02:53:25;;;;;;;25.00;14.40;;;8.50;99.90;;;;;;5114713;28;20230;-62
2021/12/17 02:55:54;;;;;;;24.33;16.40;;;8.40;99.90;;;;;;5114741;28;20199;-63
2021/12/17 02:58:23;;;;;;;23.23;15.23;;;8.40;99.90;;;;;;5114678;28;20228;-63
2021/12/17 03:00:51;;;;;;;25.25;15.65;;;8.40;99.90;;;;;;5114657;28;20665;-61
2021/12/17 03:03:20;;;;;;;22.58;14.30;;;8.40;99.90;;;;;;5114589;28;20219;-62
2021/12/17 03:05:48;;;;;;;21.92;14.70;;;8.40;99.90;;;;;;5114597;28;20199;-62
2021/12/17 03:08:16;;;;;;;20.27;13.73;;;8.40;99.90;;;;;;5114898;28;20203;-62
2021/12/17 03:10:48;;;;;;;25.60;13.25;;;8.40;99.90;;;;;;5114840;28;20207;-62
2021/12/17 03:13:16;;;;;;;23.45;14.43;;;8.30;99.90;;;;;;5114620;28;20220;-63
2021/12/17 03:15:48;;;;;;;20.02;14.35;;;8.30;99.90;;;;;;5114278;28;20203;-62
2021/12/17 03:18:50;;;;;;;24.77;14.45;;;8.30;99.90;;;;;;5114750;28;20208;-63
2021/12/17 03:24:02;;;;;;;20.55;13.32;;;8.30;99.90;;;;;;5114378;28;20276;-62
2021/12/17 03:26:31;;;;;;;19.95;13.90;;;8.30;99.90;;;;;;5114530;28;20206;-63
2021/12/17 03:28:59;;;;;;;23.05;13.60;;;8.40;99.90;;;;;;5114433;28;20203;-62
2021/12/17 03:31:27;;;;;;;19.40;13.70;;;8.40;99.90;;;;;;5114490;28;20683;-63
2021/12/17 03:34:05;;;;;;;21.75;13.05;;;8.40;99.90;;;;;;5113959;28;20220;-63
2021/12/17 03:36:32;;;;;;;22.00;13.73;;;8.40;99.90;;;;;;5114879;28;20183;-62
2021/12/17 03:38:59;;;;;;;22.90;13.52;;;8.40;99.90;;;;;;5114347;28;20207;-62
2021/12/17 03:41:34;;;;;;;19.90;13.20;;;8.30;99.90;;;;;;5114251;28;20195;-62
2021/12/17 03:44:04;;;;;;;22.38;14.02;;;8.30;99.90;;;;;;5113837;28;20671;-63
2021/12/17 03:46:31;;;;;;;25.45;15.82;;;8.30;99.90;;;;;;5114181;28;20211;-62
2021/12/17 03:48:58;;;;;;;22.08;14.25;;;8.30;99.90;;;;;;5114262;28;20229;-62
2021/12/17 03:51:25;;;;;;;21.30;13.68;;;8.30;99.90;;;;;;5113890;28;20203;-62
2021/12/17 03:53:54;;;;;;;22.60;13.18;;;8.30;99.90;;;;;;5113730;28;20223;-62
2021/12/17 03:56:23;;;;;;;22.65;14.30;;;8.30;99.90;;;;;;5113915;28;20687;-62
2021/12/17 03:58:53;;;;;;;20.25;13.30;;;8.20;99.90;;;;;;5113469;28;20211;-63
2021/12/17 04:01:22;;;;;;;27.60;14.98;;;8.20;99.90;;;;;;5114059;28;20569;-62
2021/12/17 04:03:49;;;;;;;22.35;12.13;;;8.20;99.90;;;;;;5114147;28;20242;-63
2021/12/17 04:09:04;;;;;;;21.95;13.98;;;8.20;99.90;;;;;;5112693;27;20544;-63
2021/12/17 04:11:32;;;;;;;23.65;13.35;;;8.20;99.90;;;;;;5112658;28;20694;-62
2021/12/17 04:13:59;;;;;;;20.15;11.82;;;8.20;99.90;;;;;;5113820;28;20223;-63
2021/12/17 04:16:30;;;;;;;20.77;12.90;;;8.20;99.90;;;;;;5114641;28;20290;-63
2021/12/17 04:21:42;;;;;;;24.30;12.00;;;8.20;99.90;;;;;;5115158;22;20228;-64
2021/12/17 04:24:10;;;;;;;19.45;11.43;;;8.10;99.90;;;;;;5093144;28;20184;-65
2021/12/17 04:26:38;;;;;;;20.63;12.30;;;8.20;99.90;;;;;;5092608;28;20204;-64
2021/12/17 04:29:06;;;;;;;18.83;11.98;;;8.20;99.90;;;;;;5092545;28;20199;-65
2021/12/17 04:31:34;;;;;;;19.85;12.18;;;8.20;99.90;;;;;;5092633;28;20204;-65
2021/12/17 04:34:04;;;;;;;21.33;12.75;;;8.20;99.90;;;;;;5093171;28;20215;-65
2021/12/17 04:36:40;;;;;;;21.73;12.65;;;8.20;99.90;;;;;;5093049;28;20206;-64
2021/12/17 04:39:08;;;;;;;25.20;13.50;;;8.20;99.90;;;;;;5092491;28;20200;-64
2021/12/17 04:41:43;;;;;;;22.92;13.35;;;8.20;99.90;;;;;;5093009;28;20200;-65
2021/12/17 04:44:16;;;;;;;24.95;14.18;;;8.20;99.90;;;;;;5092909;28;20193;-64
2021/12/17 04:46:48;;;;;;;22.08;12.88;;;8.20;99.90;;;;;;5092758;28;20266;-65
2021/12/17 04:58:40;;;;;;;21.08;11.63;;;8.20;99.90;;;;;;5092983;28;20188;-64
2021/12/17 05:08:56;;;;;;;19.55;11.07;;;8.10;99.90;;;;;;5008485;28;20234;-65
2021/12/17 05:11:38;;;;;;;18.25;10.23;;;8.10;99.90;;;;;;5069772;28;20279;-64
2021/12/17 05:27:20;;;;;;;21.92;12.07;;;8.10;99.90;;;;;;4997278;28;20341;-64
2021/12/17 05:30:10;;;;;;;21.23;13.52;;;8.10;99.90;;;;;;4995998;28;20234;-64
2021/12/17 05:33:04;;;;;;;22.38;13.10;;;8.10;99.90;;;;;;4996639;28;20208;-64
2021/12/17 05:36:21;;;;;;;29.92;13.02;;;8.10;99.90;;;;;;4995682;28;20207;-64
2021/12/17 05:45:31;;;;;;;;;;;;;;;;;;;;;
2021/12/17 05:47:59;;;;;;;21.73;11.15;;;8.10;99.90;;;;;;4992351;28;20230;-64
2021/12/17 05:53:53;;;;;;;30.42;14.35;;;8.10;99.90;;;;;;5077678;28;20187;-64
2021/12/17 05:56:22;;;;;;;29.98;15.45;;;8.00;99.90;;;;;;5077401;28;20668;-64
2021/12/17 05:59:10;;;;;;;26.40;12.82;;;8.00;99.90;;;;;;5075983;28;20196;-64
2021/12/17 06:01:49;;;;;;;28.17;14.45;;;8.00;99.90;;;;;;5064747;28;20201;-63
2021/12/17 06:04:16;;;;;;;33.03;16.33;;;8.00;99.90;;;;;;5077409;28;20708;-64
2021/12/17 06:06:56;;;;;;;;;;;;;;;;;;;;;
2021/12/17 06:09:28;;;;;;;29.75;15.57;;;8.00;99.90;;;;;;5077182;28;20217;-64
2021/12/17 06:12:28;;;;;;;27.95;15.85;;;8.00;99.90;;;;;;5077726;28;20204;-63
2021/12/17 06:15:10;;;;;;;31.40;15.38;;;8.00;99.90;;;;;;5043858;28;20201;-63
2021/12/17 06:17:57;;;;;;;25.92;14.30;;;8.10;99.90;;;;;;5077859;28;20197;-63
2021/12/17 06:23:40;;;;;;;28.33;12.90;;;8.00;99.90;;;;;;5058188;28;20223;-63
2021/12/17 06:32:31;;;;;;;29.23;15.00;;;8.00;99.90;;;;;;5040921;28;20212;-65
2021/12/17 06:42:06;;;;;;;23.60;12.25;;;8.00;99.90;;;;;;4995550;28;20199;-64
2021/12/17 06:45:00;;;;;;;25.92;11.77;;;7.90;99.90;;;;;;5024222;28;20288;-64
2021/12/17 07:00:08;;;;;;;22.73;9.65;;;7.80;99.90;;;;;;5049551;28;20582;-65
2021/12/17 07:11:47;;;;;;;19.63;9.93;;;7.80;99.90;;;;;;5076112;28;20224;-66
2021/12/17 07:18:05;;;;;;;18.33;9.98;;;7.80;99.90;;;;;;5075527;28;20234;-66
2021/12/17 07:21:01;;;;;;;15.25;8.98;;;7.80;99.90;;;;;;5076020;28;20217;-65
2021/12/17 07:32:32;;;;;;;13.85;7.28;;;7.70;99.90;;;;;;5075323;28;20181;-71
2021/12/17 07:43:57;;;;;;;12.18;7.35;;;7.70;99.90;;;;;;4993666;28;20215;-67
2021/12/17 07:50:01;;;;;;;8.35;5.85;;;7.70;99.90;;;;;;4879617;29;20243;-66
2021/12/17 07:52:30;;;;;;;9.50;5.07;;;7.70;99.90;;;;;;4895813;29;20309;-68
2021/12/17 07:54:57;;;;;;;9.25;5.15;;;7.70;99.90;;;;;;5039163;28;20227;-60
2021/12/17 07:57:24;;;;;;;7.90;5.38;;;7.70;99.90;;;;;;5072729;28;20204;-62
2021/12/17 07:59:54;;;;;;;10.98;5.72;;;7.70;99.90;;;;;;5074242;28;20228;-65
2021/12/17 08:02:21;;;;;;;8.40;5.57;;;7.70;99.90;;;;;;5073206;28;20223;-62
2021/12/17 08:04:48;;;;;;;8.25;4.95;;;7.70;99.90;;;;;;5072747;28;20200;-60
2021/12/17 08:07:16;;;;;;;9.80;6.47;;;7.70;99.90;;;;;;5072609;28;20207;-60
2021/12/17 08:09:44;;;;;;;10.50;6.43;;;7.70;99.90;;;;;;5072604;28;20701;-60
2021/12/17 08:12:11;;;;;;;9.07;6.70;;;7.70;99.90;;;;;;5072985;28;20200;-61
2021/12/17 08:14:38;;;;;;;9.43;7.80;;;7.70;99.90;;;;;;5072724;28;20205;-62
2021/12/17 08:17:26;;;;;;;11.20;7.68;;;7.70;99.90;;;;;;5072564;28;20279;-62
2021/12/17 08:25:28;;;;;;;15.80;10.25;;;7.70;99.90;;;;;;5072988;28;20188;-61
2021/12/17 08:28:04;;;;;;;15.95;10.65;;;7.70;99.90;;;;;;5072512;28;20209;-61
2021/12/17 08:30:38;;;;;;;15.93;9.93;;;7.70;99.90;;;;;;5072529;28;20235;-62
2021/12/17 08:33:06;;;;;;;16.17;10.43;;;7.60;99.90;;;;;;5072710;28;20185;-62
2021/12/17 08:35:33;;;;;;;16.42;9.82;;;7.60;99.90;;;;;;5073337;28;20303;-62
2021/12/17 08:38:05;;;;;;;18.75;10.68;;;7.50;99.90;;;;;;5073016;28;20201;-62
2021/12/17 08:40:32;;;;;;;16.00;9.68;;;7.50;99.90;;;;;;5072903;28;20220;-61
2021/12/17 08:42:59;;;;;;;14.00;9.40;;;7.40;99.90;;;;;;5072753;28;20197;-62
2021/12/17 08:45:26;;;;;;;15.75;9.93;;;7.40;99.90;;;;;;5072546;28;20212;-63
2021/12/17 08:47:53;;;;;;;16.58;11.07;;;7.40;99.90;;;;;;5072369;28;20672;-62
2021/12/17 08:50:21;;;;;;;13.68;8.43;;;7.50;99.90;;;;;;5072468;28;20304;-62
2021/12/17 08:52:49;;;;;;;11.38;7.40;;;7.50;99.90;;;;;;5072676;28;20216;-62
2021/12/17 08:55:17;;;;;;;10.70;7.85;;;7.50;99.90;;;;;;5075942;28;20197;-62
2021/12/17 08:57:45;;;;;;;11.63;6.57;;;7.50;99.90;;;;;;5076039;28;20220;-63
2021/12/17 09:00:14;;;;;;;7.95;5.43;;;7.50;99.90;;;;;;5076099;28;20232;-62
2021/12/17 09:02:41;;;;;;;8.95;5.38;;;7.40;99.90;;;;;;5075804;28;20599;-62
2021/12/17 09:05:10;;;;;;;8.57;5.05;;;7.40;99.90;;;;;;5076177;28;20208;-61
2021/12/17 09:07:38;;;;;;;7.75;5.90;;;7.50;99.90;;;;;;5075782;28;20197;-63
2021/12/17 09:10:06;;;;;;;7.75;5.72;;;7.40;99.90;;;;;;5075302;28;20221;-61
2021/12/17 09:12:36;;;;;;;9.20;5.85;;;7.40;99.90;;;;;;5075699;28;20197;-61
2021/12/17 09:15:03;;;;;;;8.63;6.32;;;7.40;99.90;;;;;;5075721;28;20292;-62
2021/12/17 09:17:30;;;;;;;10.05;6.90;;;7.30;99.90;;;;;;5076173;28;20223;-62
2021/12/17 09:19:57;;;;;;;10.98;6.80;;;7.40;99.90;;;;;;5075576;28;20224;-63
2021/12/17 09:22:24;;;;;;;10.40;6.65;;;7.30;99.90;;;;;;5075447;28;20687;-62
2021/12/17 09:24:51;;;;;;;14.27;6.63;;;7.30;99.90;;;;;;5075909;28;20208;-62
2021/12/17 09:27:18;;;;;;;13.40;7.25;;;7.30;99.90;;;;;;5075613;28;20307;-61
2021/12/17 09:29:47;;;;;;;11.88;7.63;;;7.30;99.90;;;;;;5075720;28;20232;-62
2021/12/17 09:32:14;;;;;;;12.27;6.53;;;7.40;99.90;;;;;;5075717;28;20539;-62
2021/12/17 09:34:41;;;;;;;9.60;6.05;;;7.40;99.90;;;;;;5075448;28;20268;-62
2021/12/17 09:37:08;;;;;;;8.43;5.38;;;7.30;99.90;;;;;;5075288;28;20243;-63
2021/12/17 09:39:35;;;;;;;7.93;5.88;;;7.30;99.90;;;;;;5075427;28;20228;-63
2021/12/17 09:42:04;;;;;;;7.97;5.00;;;7.30;99.90;;;;;;5075178;28;20553;-63
2021/12/17 09:44:31;;;;;;;7.00;4.85;;;7.30;99.90;;;;;;5075551;28;20566;-62
2021/12/17 09:47:00;;;;;;;7.15;4.45;;;7.30;99.90;;;;;;5075517;28;20578;-62
2021/12/17 09:49:28;;;;;;;8.73;4.70;;;7.30;99.90;;;;;;5074901;28;20282;-62
2021/12/17 09:51:56;;;;;;;7.18;4.63;;;7.30;99.90;;;;;;5075330;28;20205;-63
2021/12/17 09:54:24;;;;;;;7.13;4.90;;;7.30;99.90;;;;;;5074738;28;20236;-62
2021/12/17 09:56:51;;;;;;;6.50;4.32;;;7.30;99.90;;;;;;5074883;28;20695;-63
2021/12/17 09:59:18;;;;;;;6.90;4.72;;;7.40;99.90;;;;;;5074665;28;20201;-61
2021/12/17 10:01:46;;;;;;;7.15;4.40;;;7.40;99.90;;;;;;5074683;28;20197;-63
2021/12/17 10:04:19;;;;;;;6.97;4.47;;;7.40;99.90;;;;;;5075316;28;20205;-63
2021/12/17 10:06:47;;;;;;;6.93;4.70;;;7.40;99.90;;;;;;5074718;28;20196;-63
2021/12/17 10:09:16;;;;;;;7.13;4.78;;;7.40;99.90;;;;;;5074778;28;20229;-64
2021/12/17 10:12:02;;;;;;;8.50;4.45;;;7.40;99.90;;;;;;5074889;28;20205;-62
2021/12/17 10:14:30;;;;;;;7.75;5.05;;;7.40;99.90;;;;;;5074864;28;20201;-63
2021/12/17 10:17:07;;;;;;;9.50;5.00;;;7.40;99.90;;;;;;5074798;28;20208;-61
2021/12/17 10:19:49;;;;;;;6.00;4.57;;;7.40;99.90;;;;;;5100269;22;20256;-60
2021/12/17 10:22:19;;;;;;;6.47;4.03;;;7.40;99.90;;;;;;5054892;28;20205;-62
2021/12/17 10:24:59;;;;;;;6.35;3.92;;;7.40;99.90;;;;;;5055082;28;20673;-61
2021/12/17 10:27:28;;;;;;;6.90;4.60;;;7.40;99.90;;;;;;5055456;28;20185;-62
2021/12/17 10:29:57;;;;;;;5.10;4.32;;;7.40;99.90;;;;;;5054790;28;20226;-61
2021/12/17 10:32:26;;;;;;;6.18;4.15;;;7.40;99.90;;;;;;5055121;28;20717;-61
2021/12/17 10:35:09;;;;;;;6.45;4.00;;;7.50;99.90;;;;;;5055122;28;20208;-60
2021/12/17 10:37:39;;;;;;;6.13;4.10;;;7.40;99.90;;;;;;5055248;28;20186;-61
2021/12/17 10:40:22;;;;;;;5.18;3.22;;;7.50;99.90;;;;;;5055955;28;20214;-61
2021/12/17 10:43:03;;;;;;;5.50;3.28;;;7.50;99.90;;;;;;5056788;28;20295;-60
2021/12/17 10:45:35;;;;;;;3.45;2.97;;;7.50;99.90;;;;;;5055721;28;20185;-60
2021/12/17 10:48:27;;;;;;;5.32;3.63;;;7.50;99.90;;;;;;5054713;28;20276;-61
2021/12/17 10:51:16;;;;;;;3.60;3.30;;;7.50;99.90;;;;;;5054696;28;20225;-61
2021/12/17 10:53:46;;;;;;;4.50;3.58;;;7.50;99.90;;;;;;5054443;28;20239;-60
2021/12/17 10:56:16;;;;;;;4.05;3.10;;;7.50;99.90;;;;;;5054830;28;20187;-61
2021/12/17 10:58:54;;;;;;;5.13;3.03;;;7.50;99.90;;;;;;5054469;28;20248;-62
2021/12/17 11:01:29;;;;;;;4.78;2.90;;;7.40;99.90;;;;;;5055301;28;20639;-62
2021/12/17 11:04:08;;;;;;;4.00;2.90;;;7.40;99.90;;;;;;5054697;28;20273;-60
2021/12/17 11:06:51;;;;;;;3.90;3.13;;;7.50;99.90;;;;;;5054414;28;20192;-62
2021/12/17 11:09:34;;;;;;;4.15;3.08;;;7.50;99.90;;;;;;5054277;28;20214;-61
2021/12/17 11:12:06;;;;;;;5.38;2.95;;;7.50;99.90;;;;;;5052963;28;20205;-62
2021/12/17 11:14:34;;;;;;;5.50;3.25;;;7.50;99.90;;;;;;5054645;28;20581;-60
2021/12/17 11:17:02;;;;;;;5.85;3.30;;;7.60;99.90;;;;;;5054947;28;20209;-60
2021/12/17 11:19:31;;;;;;;5.28;3.58;;;7.60;99.90;;;;;;5054485;28;20205;-61
2021/12/17 11:22:01;;;;;;;3.90;3.00;;;7.70;99.90;;;;;;5054661;28;20590;-60
2021/12/17 11:24:28;;;;;;;4.47;3.00;;;7.70;99.90;;;;;;5054522;28;20293;-61
2021/12/17 11:26:55;;;;;;;5.47;3.22;;;7.70;99.90;;;;;;5053847;28;20201;-61
2021/12/17 11:29:23;;;;;;;4.50;3.10;;;7.70;99.90;;;;;;5053946;28;20233;-60
2021/12/17 11:31:50;;;;;;;5.05;3.92;;;7.80;99.90;;;;;;5054121;28;20237;-60
2021/12/17 11:34:19;;;;;;;4.60;3.60;;;7.80;99.90;;;;;;5053463;28;20209;-60
2021/12/17 11:36:47;;;;;;;3.83;3.42;;;7.80;99.90;;;;;;5054328;28;20220;-62
2021/12/17 11:39:23;;;;;;;6.53;5.00;;;7.90;99.90;;;;;;5054193;28;20202;-61
2021/12/17 11:42:01;;;;;;;6.32;4.57;;;8.00;99.90;;;;;;5053909;28;20603;-61
2021/12/17 11:44:40;;;;;;;7.65;5.13;;;8.00;99.90;;;;;;5053792;28;20558;-62
2021/12/17 11:47:09;;;;;;;11.57;5.30;;;8.00;99.90;;;;;;5053420;28;20660;-60
2021/12/17 11:49:38;;;;;;;7.40;6.00;;;8.00;99.90;;;;;;5053154;28;20222;-62
2021/12/17 11:52:06;;;;;;;8.20;5.18;;;7.90;99.90;;;;;;5055217;28;20202;-61
2021/12/17 11:54:35;;;;;;;9.15;6.45;;;7.80;99.90;;;;;;5054702;28;20201;-60
2021/12/17 11:57:08;;;;;;;7.68;5.40;;;7.80;99.90;;;;;;5053837;28;20201;-60
2021/12/17 11:59:39;;;;;;;9.02;5.90;;;7.80;99.90;;;;;;5053383;28;20343;-61
2021/12/17 12:02:15;;;;;;;10.40;8.40;;;7.80;99.90;;;;;;5053386;28;20216;-60
2021/12/17 12:04:54;;;;;;;8.95;6.30;;;7.80;99.90;;;;;;5054085;28;20511;-61
2021/12/17 12:07:33;;;;;;;10.45;7.40;;;7.80;99.90;;;;;;5053136;28;20231;-62
2021/12/17 12:10:08;;;;;;;10.70;6.32;;;7.90;99.90;;;;;;5057103;28;20253;-61
2021/12/17 12:13:00;;;;;;;11.23;7.18;;;7.90;99.90;;;;;;5060021;28;20189;-61
2021/12/17 12:15:49;;;;;;;10.95;6.80;;;7.90;99.90;;;;;;5056786;28;20205;-62
2021/12/17 12:18:19;;;;;;;11.27;6.60;;;7.90;99.90;;;;;;5056891;28;20197;-61
2021/12/17 12:21:04;;;;;;;9.13;6.53;;;7.90;99.90;;;;;;5056006;28;20233;-61
2021/12/17 12:23:54;;;;;;;9.15;6.45;;;7.90;99.90;;;;;;5056267;28;20184;-62
2021/12/17 12:26:41;;;;;;;6.55;5.22;;;8.00;99.90;;;;;;5058600;28;20669;-62
2021/12/17 12:29:14;;;;;;;9.13;6.00;;;8.00;99.90;;;;;;5057617;28;20661;-62
2021/12/17 12:32:02;;;;;;;10.38;6.95;;;8.00;99.90;;;;;;5063084;28;20225;-60
2021/12/17 12:34:36;;;;;;;9.45;6.53;;;8.00;99.90;;;;;;5064888;28;20197;-61
2021/12/17 12:37:09;;;;;;;8.40;5.47;;;8.00;99.90;;;;;;5066669;28;20525;-63
2021/12/17 12:39:39;;;;;;;7.35;6.03;;;7.90;99.90;;;;;;5065429;28;20193;-63
2021/12/17 12:42:13;;;;;;;11.90;6.68;;;7.90;99.90;;;;;;5057319;28;20559;-60
2021/12/17 12:45:10;;;;;;;10.43;7.75;;;7.90;99.90;;;;;;5056918;28;20661;-62
2021/12/17 12:47:55;;;;;;;9.88;6.88;;;8.00;99.90;;;;;;5058962;28;20201;-62
2021/12/17 12:50:24;;;;;;;13.30;6.68;;;8.00;99.90;;;;;;5059909;28;20251;-61
2021/12/17 12:52:55;;;;;;;10.95;6.70;;;8.00;99.90;;;;;;5058957;28;20204;-60
2021/12/17 12:55:30;;;;;;;11.98;7.25;;;8.10;99.90;;;;;;5058911;28;20193;-61
2021/12/17 12:58:06;;;;;;;10.30;7.45;;;8.10;99.90;;;;;;5058735;28;20185;-61
2021/12/17 13:00:36;;;;;;;11.77;8.00;;;8.10;99.90;;;;;;5057637;28;20249;-61
2021/12/17 13:03:06;;;;;;;12.77;9.50;;;8.20;99.90;;;;;;5057468;28;20217;-60
2021/12/17 13:05:37;;;;;;;18.00;10.77;;;8.20;99.90;;;;;;5057691;28;20215;-62
2021/12/17 13:08:07;;;;;;;13.95;9.70;;;8.20;99.90;;;;;;5057756;28;20190;-62
2021/12/17 13:10:37;;;;;;;14.80;9.80;;;8.20;99.90;;;;;;5057519;28;20221;-61
2021/12/17 13:13:15;;;;;;;13.40;8.18;;;8.20;99.90;;;;;;5057954;28;20202;-61
2021/12/17 13:15:46;;;;;;;11.45;7.90;;;8.20;99.90;;;;;;5057459;28;20281;-59
2021/12/17 13:23:51;;;;;;;11.10;6.38;;;8.20;99.90;;;;;;5039994;28;20197;-60
2021/12/17 13:26:20;;;;;;;9.38;6.70;;;8.20;99.90;;;;;;5056889;28;20218;-61
2021/12/17 13:29:01;;;;;;;10.90;7.40;;;8.10;99.90;;;;;;5056178;28;20688;-61
2021/12/17 13:31:40;;;;;;;12.75;7.72;;;8.10;99.90;;;;;;5056219;28;20677;-61
2021/12/17 13:34:10;;;;;;;12.38;7.93;;;8.10;99.90;;;;;;5056426;28;20186;-60
2021/12/17 13:36:38;;;;;;;11.10;8.75;;;8.10;99.90;;;;;;5056296;28;20186;-59
2021/12/17 13:39:06;;;;;;;9.55;7.65;;;8.10;99.90;;;;;;5056124;28;20206;-59
2021/12/17 13:41:36;;;;;;;12.20;8.07;;;8.10;99.90;;;;;;5055050;28;20226;-59
2021/12/17 13:44:06;;;;;;;11.15;8.25;;;8.10;99.90;;;;;;5055315;28;20210;-60
2021/12/17 13:46:36;;;;;;;10.40;7.18;;;8.10;99.90;;;;;;5056202;28;20228;-59
2021/12/17 13:49:04;;;;;;;9.05;7.45;;;8.10;99.90;;;;;;5055828;28;20212;-61
2021/12/17 13:51:31;;;;;;;12.52;9.15;;;8.10;99.90;;;;;;5055368;28;20222;-59
2021/12/17 13:53:59;;;;;;;12.55;8.80;;;8.10;99.90;;;;;;5057074;28;20209;-60
2021/12/17 13:56:26;;;;;;;12.70;8.70;;;8.10;99.90;;;;;;5060945;28;20201;-61
2021/12/17 13:59:02;;;;;;;12.07;8.20;;;8.10;99.90;;;;;;5069324;28;20206;-60
2021/12/17 14:01:30;;;;;;;11.10;8.00;;;8.10;99.90;;;;;;5068327;28;20228;-60
2021/12/17 14:03:57;;;;;;;11.27;7.88;;;8.10;99.90;;;;;;5065861;28;20205;-61
2021/12/17 14:06:35;;;;;;;12.68;7.78;;;8.20;99.90;;;;;;5063274;28;20198;-59
2021/12/17 14:09:02;;;;;;;13.07;8.13;;;8.20;99.90;;;;;;5063570;28;20217;-60
2021/12/17 14:11:33;;;;;;;11.32;7.85;;;8.20;99.90;;;;;;5060937;28;20226;-59
2021/12/17 14:14:01;;;;;;;8.35;7.50;;;8.30;99.90;;;;;;5058171;28;20315;-60
2021/12/17 14:16:31;;;;;;;11.25;7.80;;;8.30;99.90;;;;;;5057126;28;20206;-60
2021/12/17 14:18:59;;;;;;;12.10;8.20;;;8.30;99.90;;;;;;5057146;28;20190;-61
2021/12/17 14:21:30;;;;;;;9.60;8.32;;;8.30;99.90;;;;;;5056982;28;20592;-61
2021/12/17 14:23:58;;;;;;;10.48;8.40;;;8.30;99.90;;;;;;5058301;28;20671;-60
2021/12/17 14:26:29;;;;;;;11.68;8.27;;;8.30;99.90;;;;;;5062066;28;20208;-59
2021/12/17 14:28:57;;;;;;;13.00;9.35;;;8.30;99.90;;;;;;5063287;28;20205;-61
2021/12/17 14:31:25;;;;;;;10.13;8.82;;;8.30;99.90;;;;;;5057747;28;20233;-59
2021/12/17 14:33:57;;;;;;;13.20;10.63;;;8.30;99.90;;;;;;5057973;28;20204;-61
2021/12/17 14:36:29;;;;;;;13.35;9.80;;;8.30;99.90;;;;;;5056206;28;20638;-60
2021/12/17 14:39:05;;;;;;;10.98;9.40;;;8.30;99.90;;;;;;5057961;28;20190;-61
2021/12/17 14:41:39;;;;;;;12.32;9.13;;;8.20;99.90;;;;;;5057491;28;20267;-61
2021/12/17 14:44:20;;;;;;;12.75;9.70;;;8.20;99.90;;;;;;5056273;28;20276;-59
2021/12/17 14:46:52;;;;;;;12.50;10.52;;;8.20;99.90;;;;;;5055575;28;20197;-61
2021/12/17 14:57:14;;;;;;;13.35;9.95;;;8.20;99.90;;;;;;5054814;28;20285;-61
2021/12/17 15:00:47;;;;;;;13.60;9.75;;;8.20;99.90;;;;;;5050476;28;20755;-59
2021/12/17 15:03:28;;;;;;;11.75;9.63;;;8.20;99.90;;;;;;5054045;28;20222;-61
2021/12/17 15:05:59;;;;;;;12.05;10.27;;;8.10;99.90;;;;;;5054551;28;20236;-61
2021/12/17 15:08:26;;;;;;;13.82;9.35;;;8.20;99.90;;;;;;5054093;28;20660;-61
2021/12/17 15:10:54;;;;;;;13.57;10.18;;;8.10;99.90;;;;;;5054334;28;20225;-60
2021/12/17 15:13:21;;;;;;;12.50;9.60;;;8.20;99.90;;;;;;5055839;28;20573;-61
2021/12/17 15:15:49;;;;;;;13.18;9.50;;;8.20;99.90;;;;;;5067116;28;20204;-61
2021/12/17 15:18:19;;;;;;;11.20;9.73;;;8.20;99.90;;;;;;5067499;28;20198;-62
2021/12/17 15:20:48;;;;;;;11.77;10.05;;;8.20;99.90;;;;;;5066311;28;20225;-61
2021/12/17 15:23:18;;;;;;;14.70;10.23;;;8.20;99.90;;;;;;5064680;28;20251;-60
2021/12/17 15:25:45;;;;;;;12.60;10.50;;;8.10;99.90;;;;;;5054506;28;20216;-59
2021/12/17 15:28:14;;;;;;;13.38;11.00;;;8.10;99.90;;;;;;5055405;28;20206;-61
2021/12/17 15:30:44;;;;;;;14.95;10.60;;;8.10;99.90;;;;;;5053804;28;20712;-61
2021/12/17 15:33:12;;;;;;;17.05;11.27;;;8.10;99.90;;;;;;5054718;28;20197;-58
2021/12/17 15:35:39;;;;;;;16.45;11.50;;;8.10;99.90;;;;;;5054021;28;20673;-59
2021/12/17 15:38:08;;;;;;;17.80;12.32;;;8.20;99.90;;;;;;5054098;28;20296;-59
2021/12/17 15:40:37;;;;;;;18.85;12.93;;;8.10;99.90;;;;;;5053596;28;20227;-58
2021/12/17 15:43:05;;;;;;;17.63;12.57;;;8.10;99.90;;;;;;5054004;28;20681;-59
2021/12/17 15:45:33;;;;;;;19.90;14.95;;;8.10;99.90;;;;;;5054266;28;20210;-59
2021/12/17 15:48:01;;;;;;;23.30;13.65;;;8.10;99.90;;;;;;5053825;28;20236;-58
2021/12/17 15:50:28;;;;;;;20.80;14.70;;;8.10;99.90;;;;;;5053868;28;20244;-60
2021/12/17 15:52:55;;;;;;;23.35;16.13;;;8.10;99.90;;;;;;5053815;28;20209;-60
2021/12/17 15:55:25;;;;;;;21.80;16.10;;;8.10;99.90;;;;;;5054180;28;20207;-60
2021/12/17 15:57:54;;;;;;;22.92;16.55;;;8.10;99.90;;;;;;5053733;28;20192;-60
2021/12/17 16:00:23;;;;;;;21.55;15.07;;;8.10;99.90;;;;;;5053427;28;20257;-60
2021/12/17 16:02:50;;;;;;;27.25;17.25;;;8.00;99.90;;;;;;5054206;28;20581;-62
2021/12/17 16:05:21;;;;;;;23.70;16.58;;;8.10;99.90;;;;;;5053711;28;20234;-60
2021/12/17 16:07:51;;;;;;;23.17;16.70;;;8.00;99.90;;;;;;5054167;28;20189;-60
2021/12/17 16:18:51;;;;;;;23.10;15.05;;;8.10;99.90;;;;;;5053127;28;20185;-60
2021/12/17 16:21:17;;;;;;;19.13;13.93;;;8.00;99.90;;;;;;5090579;22;20268;-56
2021/12/17 16:23:46;;;;;;;22.13;14.77;;;8.00;99.90;;;;;;5092148;28;20215;-60
2021/12/17 16:26:15;;;;;;;17.50;12.10;;;8.00;99.90;;;;;;5092778;28;20691;-58
2021/12/17 16:28:46;;;;;;;16.38;12.52;;;8.00;99.90;;;;;;5093036;28;20200;-59
2021/12/17 16:31:17;;;;;;;22.13;12.40;;;7.90;99.90;;;;;;5092702;28;20241;-57
2021/12/17 16:33:44;;;;;;;20.58;13.52;;;7.80;99.90;;;;;;5092918;28;20668;-57
2021/12/17 16:36:12;;;;;;;21.55;13.25;;;7.80;99.90;;;;;;5092647;28;20660;-57
2021/12/17 16:38:40;;;;;;;15.05;12.45;;;7.80;99.90;;;;;;5093276;28;20200;-57
2021/12/17 16:41:09;;;;;;;18.33;12.30;;;7.80;99.90;;;;;;5092939;28;20196;-58
2021/12/17 16:43:38;;;;;;;19.25;14.30;;;7.80;99.90;;;;;;5093126;28;20204;-55